sensor_id;sensor_type;location;lat;lon;timestamp;pressure;altitude;pressure_sealevel;temperature;humidity
7918;BME280;4004;42.624;23.386;2022-12-07T00:01:05;94139.66;;;4.95;100.00
7918;BME280;4004;42.624;23.386;2022-12-07T00:03:33;94144.47;;;5.02;100.00
7918;BME280;4004;42.624;23.386;2022-12-07T00:06:00;94140.72;;;5.03;100.00
7918;BME280;4004;42.624;23.386;2022-12-07T00:08:27;94142.44;;;5.07;100.00
7918;BME280;4004;42.624;23.386;2022-12-07T00:10:54;94139.94;;;5.02;100.00
7918;BME280;4004;42.624;23.386;2022-12-07T00:13:21;94146.06;;;5.03;100.00
7918;BME280;4004;42.624;23.386;2022-12-07T00:15:48;94143.97;;;5.08;100.00
7918;BME280;4004;42.624;23.386;2022-12-07T00:18:14;94130.97;;;5.07;100.00
7918;BME280;4004;42.624;23.386;2022-12-07T00:20:42;94128.31;;;5.07;100.00
7918;BME280;4004;42.624;23.386;2022-12-07T00:23:09;94137.88;;;5.08;100.00
7918;BME280;4004;42.624;23.386;2022-12-07T00:25:36;94117.22;;;5.05;100.00
7918;BME280;4004;42.624;23.386;2022-12-07T00:28:03;94111.03;;;5.13;100.00
7918;BME280;4004;42.624;23.386;2022-12-07T00:30:30;94127.50;;;5.15;100.00
7918;BME280;4004;42.624;23.386;2022-12-07T00:32:57;94119.03;;;5.13;100.00
7918;BME280;4004;42.624;23.386;2022-12-07T00:35:23;94125.94;;;5.14;100.00
7918;BME280;4004;42.624;23.386;2022-12-07T00:37:51;94130.63;;;5.17;100.00
7918;BME280;4004;42.624;23.386;2022-12-07T00:40:19;94132.97;;;5.18;100.00
7918;BME280;4004;42.624;23.386;2022-12-07T00:42:46;94128.66;;;5.35;100.00
7918;BME280;4004;42.624;23.386;2022-12-07T00:45:12;94128.50;;;5.31;100.00
7918;BME280;4004;42.624;23.386;2022-12-07T00:47:39;94126.78;;;5.35;100.00
7918;BME280;4004;42.624;23.386;2022-12-07T00:50:06;94119.63;;;5.27;100.00
7918;BME280;4004;42.624;23.386;2022-12-07T00:52:33;94113.81;;;5.25;100.00
7918;BME280;4004;42.624;23.386;2022-12-07T00:55:01;94118.81;;;5.27;100.00
7918;BME280;4004;42.624;23.386;2022-12-07T00:57:30;94114.09;;;5.32;100.00
7918;BME280;4004;42.624;23.386;2022-12-07T00:59:57;94107.38;;;5.26;100.00
7918;BME280;4004;42.624;23.386;2022-12-07T01:02:25;94104.09;;;5.29;100.00
7918;BME280;4004;42.624;23.386;2022-12-07T01:04:52;94119.44;;;5.32;100.00
7918;BME280;4004;42.624;23.386;2022-12-07T01:07:19;94118.31;;;5.33;100.00
7918;BME280;4004;42.624;23.386;2022-12-07T01:09:45;94130.38;;;5.39;100.00
7918;BME280;4004;42.624;23.386;2022-12-07T01:12:13;94119.25;;;5.37;100.00
7918;BME280;4004;42.624;23.386;2022-12-07T01:14:41;94122.38;;;5.39;100.00
7918;BME280;4004;42.624;23.386;2022-12-07T01:17:09;94115.94;;;5.40;100.00
7918;BME280;4004;42.624;23.386;2022-12-07T01:19:36;94102.78;;;5.35;100.00
7918;BME280;4004;42.624;23.386;2022-12-07T01:22:02;94112.66;;;5.35;100.00
7918;BME280;4004;42.624;23.386;2022-12-07T01:24:29;94109.53;;;5.33;100.00
7918;BME280;4004;42.624;23.386;2022-12-07T01:26:56;94107.38;;;5.26;100.00
7918;BME280;4004;42.624;23.386;2022-12-07T01:29:24;94102.66;;;5.32;100.00
7918;BME280;4004;42.624;23.386;2022-12-07T01:31:51;94105.00;;;5.33;100.00
7918;BME280;4004;42.624;23.386;2022-12-07T01:34:17;94095.44;;;5.32;100.00
7918;BME280;4004;42.624;23.386;2022-12-07T01:36:44;94095.91;;;5.34;100.00
7918;BME280;4004;42.624;23.386;2022-12-07T01:39:11;94104.22;;;5.33;100.00
7918;BME280;4004;42.624;23.386;2022-12-07T01:41:40;94104.22;;;5.33;100.00
7918;BME280;4004;42.624;23.386;2022-12-07T01:44:18;94092.50;;;5.25;100.00
7918;BME280;4004;42.624;23.386;2022-12-07T01:46:47;94108.97;;;5.27;100.00
7918;BME280;4004;42.624;23.386;2022-12-07T01:49:25;94095.03;;;5.22;100.00
7918;BME280;4004;42.624;23.386;2022-12-07T01:51:58;94100.16;;;5.27;100.00
7918;BME280;4004;42.624;23.386;2022-12-07T01:54:27;94093.78;;;5.19;100.00
7918;BME280;4004;42.624;23.386;2022-12-07T01:56:54;94036.25;;;4.88;100.00
7918;BME280;4004;42.624;23.386;2022-12-07T01:59:24;94086.72;;;5.23;100.00
7918;BME280;4004;42.624;23.386;2022-12-07T02:01:54;94085.94;;;5.23;100.00
7918;BME280;4004;42.624;23.386;2022-12-07T02:04:22;94082.16;;;5.24;100.00
7918;BME280;4004;42.624;23.386;2022-12-07T02:06:50;94083.06;;;5.28;100.00
7918;BME280;4004;42.624;23.386;2022-12-07T02:09:17;94088.09;;;5.29;100.00
7918;BME280;4004;42.624;23.386;2022-12-07T02:11:44;94083.84;;;5.28;100.00
7918;BME280;4004;42.624;23.386;2022-12-07T02:14:10;94076.97;;;5.27;100.00
7918;BME280;4004;42.624;23.386;2022-12-07T02:16:44;94068.97;;;5.27;100.00
7918;BME280;4004;42.624;23.386;2022-12-07T02:22:33;94083.19;;;5.31;100.00
7918;BME280;4004;42.624;23.386;2022-12-07T02:25:09;94085.25;;;5.34;100.00
7918;BME280;4004;42.624;23.386;2022-12-07T02:27:45;94092.78;;;5.32;100.00
7918;BME280;4004;42.624;23.386;2022-12-07T02:30:15;94082.78;;;5.29;100.00
7918;BME280;4004;42.624;23.386;2022-12-07T02:32:48;94077.88;;;5.31;100.00
7918;BME280;4004;42.624;23.386;2022-12-07T02:35:19;94076.59;;;5.37;100.00
7918;BME280;4004;42.624;23.386;2022-12-07T02:37:58;94066.78;;;5.29;100.00
7918;BME280;4004;42.624;23.386;2022-12-07T02:40:31;94073.16;;;5.37;100.00
7918;BME280;4004;42.624;23.386;2022-12-07T02:43:03;94058.13;;;5.32;100.00
7918;BME280;4004;42.624;23.386;2022-12-07T02:45:34;94066.44;;;5.31;100.00
7918;BME280;4004;42.624;23.386;2022-12-07T02:48:02;94069.72;;;5.36;100.00
7918;BME280;4004;42.624;23.386;2022-12-07T02:50:30;94076.13;;;5.35;100.00
7918;BME280;4004;42.624;23.386;2022-12-07T02:52:56;94072.41;;;5.28;100.00
7918;BME280;4004;42.624;23.386;2022-12-07T02:55:27;94074.63;;;5.26;100.00
7918;BME280;4004;42.624;23.386;2022-12-07T02:58:09;94067.59;;;5.21;100.00
7918;BME280;4004;42.624;23.386;2022-12-07T03:00:46;94067.59;;;5.21;100.00
7918;BME280;4004;42.624;23.386;2022-12-07T03:03:17;94067.28;;;5.23;100.00
7918;BME280;4004;42.624;23.386;2022-12-07T03:06:10;94055.03;;;5.22;100.00
7918;BME280;4004;42.624;23.386;2022-12-07T03:08:51;94045.97;;;5.23;100.00
7918;BME280;4004;42.624;23.386;2022-12-07T03:11:24;94044.06;;;5.23;100.00
7918;BME280;4004;42.624;23.386;2022-12-07T03:13:59;94061.16;;;5.22;100.00
7918;BME280;4004;42.624;23.386;2022-12-07T03:16:32;94049.72;;;5.22;100.00
7918;BME280;4004;42.624;23.386;2022-12-07T03:19:04;94047.97;;;5.26;100.00
7918;BME280;4004;42.624;23.386;2022-12-07T03:21:34;94054.53;;;5.28;100.00
7918;BME280;4004;42.624;23.386;2022-12-07T03:24:06;94048.94;;;5.21;100.00
7918;BME280;4004;42.624;23.386;2022-12-07T03:26:38;94044.13;;;5.14;100.00
7918;BME280;4004;42.624;23.386;2022-12-07T03:29:11;94042.72;;;5.08;100.00
7918;BME280;4004;42.624;23.386;2022-12-07T03:31:43;94045.59;;;5.03;100.00
7918;BME280;4004;42.624;23.386;2022-12-07T03:34:16;94040.75;;;4.96;100.00
7918;BME280;4004;42.624;23.386;2022-12-07T03:36:48;94045.44;;;4.99;100.00
7918;BME280;4004;42.624;23.386;2022-12-07T03:39:22;94040.88;;;5.00;100.00
7918;BME280;4004;42.624;23.386;2022-12-07T03:41:52;94020.25;;;4.88;100.00
7918;BME280;4004;42.624;23.386;2022-12-07T03:44:20;94048.09;;;4.99;100.00
7918;BME280;4004;42.624;23.386;2022-12-07T03:46:54;94057.66;;;5.01;100.00
7918;BME280;4004;42.624;23.386;2022-12-07T03:49:25;94041.97;;;5.08;100.00
7918;BME280;4004;42.624;23.386;2022-12-07T03:51:56;94050.53;;;5.13;100.00
7918;BME280;4004;42.624;23.386;2022-12-07T03:54:30;94047.44;;;5.11;100.00
7918;BME280;4004;42.624;23.386;2022-12-07T03:56:58;94048.22;;;5.12;100.00
7918;BME280;4004;42.624;23.386;2022-12-07T03:59:26;94042.09;;;5.11;100.00
7918;BME280;4004;42.624;23.386;2022-12-07T04:01:57;94048.31;;;5.15;100.00
7918;BME280;4004;42.624;23.386;2022-12-07T04:04:27;94037.03;;;5.18;100.00
7918;BME280;4004;42.624;23.386;2022-12-07T04:06:54;94042.69;;;5.17;100.00
7918;BME280;4004;42.624;23.386;2022-12-07T04:09:21;94028.44;;;5.13;100.00
7918;BME280;4004;42.624;23.386;2022-12-07T04:11:48;94041.44;;;5.14;100.00
7918;BME280;4004;42.624;23.386;2022-12-07T04:14:15;94039.44;;;5.11;100.00
7918;BME280;4004;42.624;23.386;2022-12-07T04:16:45;94027.97;;;5.11;100.00
7918;BME280;4004;42.624;23.386;2022-12-07T04:19:13;94032.81;;;5.17;100.00
7918;BME280;4004;42.624;23.386;2022-12-07T04:21:40;94039.25;;;5.16;100.00
7918;BME280;4004;42.624;23.386;2022-12-07T04:24:07;94035.66;;;5.12;100.00
7918;BME280;4004;42.624;23.386;2022-12-07T04:26:34;94034.88;;;5.12;100.00
7918;BME280;4004;42.624;23.386;2022-12-07T04:29:00;94034.44;;;5.10;100.00
7918;BME280;4004;42.624;23.386;2022-12-07T04:31:27;94031.28;;;5.08;100.00
7918;BME280;4004;42.624;23.386;2022-12-07T04:33:54;94034.88;;;5.12;100.00
7918;BME280;4004;42.624;23.386;2022-12-07T04:36:22;94040.72;;;5.05;100.00
7918;BME280;4004;42.624;23.386;2022-12-07T04:38:49;94048.09;;;4.99;100.00
7918;BME280;4004;42.624;23.386;2022-12-07T04:41:15;94045.13;;;5.01;100.00
7918;BME280;4004;42.624;23.386;2022-12-07T04:43:42;94028.13;;;4.85;100.00
7918;BME280;4004;42.624;23.386;2022-12-07T04:46:09;94038.56;;;4.98;100.00
7918;BME280;4004;42.624;23.386;2022-12-07T04:48:35;94046.03;;;5.05;100.00
7918;BME280;4004;42.624;23.386;2022-12-07T04:51:02;94049.78;;;5.04;100.00
7918;BME280;4004;42.624;23.386;2022-12-07T04:53:31;94042.91;;;5.03;100.00
7918;BME280;4004;42.624;23.386;2022-12-07T04:55:58;94049.34;;;5.02;100.00
7918;BME280;4004;42.624;23.386;2022-12-07T04:58:26;94047.75;;;5.10;100.00
7918;BME280;4004;42.624;23.386;2022-12-07T05:00:54;94049.19;;;5.07;100.00
7918;BME280;4004;42.624;23.386;2022-12-07T05:03:20;94047.28;;;5.08;100.00
7918;BME280;4004;42.624;23.386;2022-12-07T05:05:47;94051.84;;;5.07;100.00
7918;BME280;4004;42.624;23.386;2022-12-07T05:08:14;94048.53;;;5.10;100.00
7918;BME280;4004;42.624;23.386;2022-12-07T05:10:42;94047.59;;;5.06;100.00
7918;BME280;4004;42.624;23.386;2022-12-07T05:13:09;94046.34;;;5.04;100.00
7918;BME280;4004;42.624;23.386;2022-12-07T05:15:35;94041.69;;;5.01;100.00
7918;BME280;4004;42.624;23.386;2022-12-07T05:18:02;94041.53;;;4.97;100.00
7918;BME280;4004;42.624;23.386;2022-12-07T05:20:29;94042.31;;;4.97;100.00
7918;BME280;4004;42.624;23.386;2022-12-07T05:22:57;94055.16;;;4.95;100.00
7918;BME280;4004;42.624;23.386;2022-12-07T05:25:24;94048.94;;;4.91;100.00
7918;BME280;4004;42.624;23.386;2022-12-07T05:27:54;94053.34;;;4.87;100.00
7918;BME280;4004;42.624;23.386;2022-12-07T05:30:21;94050.03;;;4.90;100.00
7918;BME280;4004;42.624;23.386;2022-12-07T05:32:48;94035.31;;;4.84;100.00
7918;BME280;4004;42.624;23.386;2022-12-07T05:35:15;94052.97;;;4.97;100.00
7918;BME280;4004;42.624;23.386;2022-12-07T05:37:42;94055.94;;;5.05;100.00
7918;BME280;4004;42.624;23.386;2022-12-07T05:40:10;94050.91;;;5.03;100.00
7918;BME280;4004;42.624;23.386;2022-12-07T05:42:37;94055.13;;;5.04;100.00
7918;BME280;4004;42.624;23.386;2022-12-07T05:45:06;94048.22;;;5.12;100.00
7918;BME280;4004;42.624;23.386;2022-12-07T05:47:34;94042.22;;;5.15;100.00
7918;BME280;4004;42.624;23.386;2022-12-07T05:50:01;94040.34;;;5.15;100.00
7918;BME280;4004;42.624;23.386;2022-12-07T05:52:28;94028.44;;;5.13;100.00
7918;BME280;4004;42.624;23.386;2022-12-07T05:54:54;94042.41;;;5.10;100.00
7918;BME280;4004;42.624;23.386;2022-12-07T05:57:21;94046.00;;;5.14;100.00
7918;BME280;4004;42.624;23.386;2022-12-07T05:59:48;94044.44;;;5.13;100.00
7918;BME280;4004;42.624;23.386;2022-12-07T06:02:16;94037.66;;;5.15;100.00
7918;BME280;4004;42.624;23.386;2022-12-07T06:04:44;94034.44;;;5.10;100.00
7918;BME280;4004;42.624;23.386;2022-12-07T06:07:14;94037.13;;;5.01;100.00
7918;BME280;4004;42.624;23.386;2022-12-07T06:09:41;94036.66;;;4.99;100.00
7918;BME280;4004;42.624;23.386;2022-12-07T06:12:09;94043.88;;;4.98;100.00
7918;BME280;4004;42.624;23.386;2022-12-07T06:14:54;94047.78;;;5.01;100.00
7918;BME280;4004;42.624;23.386;2022-12-07T06:17:22;94040.84;;;5.09;100.00
7918;BME280;4004;42.624;23.386;2022-12-07T06:19:49;94046.81;;;5.06;100.00
7918;BME280;4004;42.624;23.386;2022-12-07T06:22:16;94041.69;;;5.01;100.00
7918;BME280;4004;42.624;23.386;2022-12-07T06:24:43;94042.72;;;5.08;100.00
7918;BME280;4004;42.624;23.386;2022-12-07T06:27:10;94039.47;;;5.03;100.00
7918;BME280;4004;42.624;23.386;2022-12-07T06:29:37;94051.78;;;5.16;100.00
7918;BME280;4004;42.624;23.386;2022-12-07T06:32:04;94061.50;;;5.21;100.00
7918;BME280;4004;42.624;23.386;2022-12-07T06:34:32;94064.41;;;5.28;100.00
7918;BME280;4004;42.624;23.386;2022-12-07T06:36:59;94064.84;;;5.38;100.00
7918;BME280;4004;42.624;23.386;2022-12-07T06:39:27;94055.97;;;5.47;100.00
7918;BME280;4004;42.624;23.386;2022-12-07T06:41:54;94052.47;;;5.55;100.00
7918;BME280;4004;42.624;23.386;2022-12-07T06:44:22;94056.06;;;5.59;100.00
7918;BME280;4004;42.624;23.386;2022-12-07T06:46:49;94037.41;;;5.59;100.00
7918;BME280;4004;42.624;23.386;2022-12-07T06:49:16;94059.97;;;5.82;100.00
7918;BME280;4004;42.624;23.386;2022-12-07T06:51:44;94060.09;;;5.86;100.00
7918;BME280;4004;42.624;23.386;2022-12-07T06:54:13;94055.19;;;5.97;100.00
7918;BME280;4004;42.624;23.386;2022-12-07T06:56:40;94065.47;;;6.07;100.00
7918;BME280;4004;42.624;23.386;2022-12-07T06:59:08;94055.81;;;6.15;100.00
7918;BME280;4004;42.624;23.386;2022-12-07T07:01:35;94047.47;;;6.16;100.00
7918;BME280;4004;42.624;23.386;2022-12-07T07:04:03;94052.81;;;6.16;100.00
7918;BME280;4004;42.624;23.386;2022-12-07T07:06:30;94056.25;;;6.17;100.00
7918;BME280;4004;42.624;23.386;2022-12-07T07:08:58;94059.38;;;6.19;100.00
7918;BME280;4004;42.624;23.386;2022-12-07T07:11:25;94059.31;;;6.28;100.00
7918;BME280;4004;42.624;23.386;2022-12-07T07:13:51;94058.00;;;6.34;100.00
7918;BME280;4004;42.624;23.386;2022-12-07T07:16:19;94048.09;;;6.34;100.00
7918;BME280;4004;42.624;23.386;2022-12-07T07:18:45;94056.19;;;6.38;100.00
7918;BME280;4004;42.624;23.386;2022-12-07T07:21:12;94057.56;;;6.44;100.00
7918;BME280;4004;42.624;23.386;2022-12-07T07:23:39;94063.03;;;6.48;100.00
7918;BME280;4004;42.624;23.386;2022-12-07T07:26:07;94057.59;;;6.56;100.00
7918;BME280;4004;42.624;23.386;2022-12-07T07:28:34;94062.41;;;6.63;100.00
7918;BME280;4004;42.624;23.386;2022-12-07T07:31:00;94066.84;;;6.71;100.00
7918;BME280;4004;42.624;23.386;2022-12-07T07:33:27;94050.72;;;6.68;100.00
7918;BME280;4004;42.624;23.386;2022-12-07T07:35:54;94070.09;;;6.77;100.00
7918;BME280;4004;42.624;23.386;2022-12-07T07:38:20;94071.91;;;6.85;100.00
7918;BME280;4004;42.624;23.386;2022-12-07T07:40:47;94071.00;;;6.81;100.00
7918;BME280;4004;42.624;23.386;2022-12-07T07:43:15;94083.25;;;6.82;100.00
7918;BME280;4004;42.624;23.386;2022-12-07T07:45:42;94068.66;;;6.79;100.00
7918;BME280;4004;42.624;23.386;2022-12-07T07:48:09;94073.13;;;6.88;100.00
7918;BME280;4004;42.624;23.386;2022-12-07T07:50:35;94078.38;;;6.96;100.00
7918;BME280;4004;42.624;23.386;2022-12-07T07:53:02;94070.56;;;7.03;100.00
7918;BME280;4004;42.624;23.386;2022-12-07T07:55:29;94064.81;;;7.14;100.00
7918;BME280;4004;42.624;23.386;2022-12-07T07:57:56;94063.00;;;7.30;100.00
7918;BME280;4004;42.624;23.386;2022-12-07T08:00:24;94066.53;;;7.46;100.00
7918;BME280;4004;42.624;23.386;2022-12-07T08:02:51;94064.19;;;7.70;100.00
7918;BME280;4004;42.624;23.386;2022-12-07T08:05:18;94062.03;;;7.87;100.00
7918;BME280;4004;42.624;23.386;2022-12-07T08:07:44;94073.13;;;8.02;100.00
7918;BME280;4004;42.624;23.386;2022-12-07T08:10:13;94069.53;;;8.10;100.00
7918;BME280;4004;42.624;23.386;2022-12-07T08:12:41;94074.63;;;8.27;100.00
7918;BME280;4004;42.624;23.386;2022-12-07T08:15:22;94071.06;;;8.23;100.00
7918;BME280;4004;42.624;23.386;2022-12-07T08:17:50;94078.25;;;8.35;100.00
7918;BME280;4004;42.624;23.386;2022-12-07T08:20:16;94054.72;;;8.28;100.00
7918;BME280;4004;42.624;23.386;2022-12-07T08:22:43;94067.75;;;8.42;100.00
7918;BME280;4004;42.624;23.386;2022-12-07T08:25:10;94061.16;;;8.40;100.00
7918;BME280;4004;42.624;23.386;2022-12-07T08:27:36;94067.63;;;8.39;100.00
7918;BME280;4004;42.624;23.386;2022-12-07T08:30:04;94063.31;;;8.34;100.00
7918;BME280;4004;42.624;23.386;2022-12-07T08:32:31;94058.53;;;8.27;100.00
7918;BME280;4004;42.624;23.386;2022-12-07T08:35:00;94060.72;;;8.38;100.00
7918;BME280;4004;42.624;23.386;2022-12-07T08:37:26;94063.63;;;8.45;100.00
7918;BME280;4004;42.624;23.386;2022-12-07T08:39:53;94062.59;;;8.49;100.00
7918;BME280;4004;42.624;23.386;2022-12-07T08:42:20;94066.22;;;8.57;100.00
7918;BME280;4004;42.624;23.386;2022-12-07T08:44:52;94064.59;;;8.53;100.00
7918;BME280;4004;42.624;23.386;2022-12-07T08:47:19;94061.03;;;8.48;100.00
7918;BME280;4004;42.624;23.386;2022-12-07T08:49:47;94060.94;;;8.45;100.00
7918;BME280;4004;42.624;23.386;2022-12-07T08:52:17;94057.94;;;8.62;100.00
7918;BME280;4004;42.624;23.386;2022-12-07T08:54:44;94058.03;;;8.66;100.00
7918;BME280;4004;42.624;23.386;2022-12-07T08:57:11;94051.66;;;8.70;100.00
7918;BME280;4004;42.624;23.386;2022-12-07T08:59:38;94060.44;;;8.71;100.00
7918;BME280;4004;42.624;23.386;2022-12-07T09:02:06;94050.09;;;8.69;100.00
7918;BME280;4004;42.624;23.386;2022-12-07T09:04:33;94039.97;;;8.63;100.00
7918;BME280;4004;42.624;23.386;2022-12-07T09:06:59;94056.38;;;8.61;100.00
7918;BME280;4004;42.624;23.386;2022-12-07T09:09:27;94045.78;;;8.65;100.00
7918;BME280;4004;42.624;23.386;2022-12-07T09:11:54;94046.44;;;8.62;100.00
7918;BME280;4004;42.624;23.386;2022-12-07T09:14:21;94036.16;;;8.64;100.00
7918;BME280;4004;42.624;23.386;2022-12-07T09:16:48;94039.00;;;8.71;100.00
7918;BME280;4004;42.624;23.386;2022-12-07T09:19:15;94043.44;;;8.63;100.00
7918;BME280;4004;42.624;23.386;2022-12-07T09:21:42;94028.56;;;8.66;100.00
7918;BME280;4004;42.624;23.386;2022-12-07T09:24:09;94023.03;;;8.59;100.00
7918;BME280;4004;42.624;23.386;2022-12-07T09:26:37;94024.66;;;8.63;100.00
7918;BME280;4004;42.624;23.386;2022-12-07T09:29:05;94018.97;;;8.65;100.00
7918;BME280;4004;42.624;23.386;2022-12-07T09:31:32;94018.88;;;8.61;100.00
7918;BME280;4004;42.624;23.386;2022-12-07T09:34:00;94018.59;;;8.50;100.00
7918;BME280;4004;42.624;23.386;2022-12-07T09:36:27;94028.22;;;8.39;100.00
7918;BME280;4004;42.624;23.386;2022-12-07T09:38:55;94023.56;;;8.36;100.00
7918;BME280;4004;42.624;23.386;2022-12-07T09:41:23;94008.53;;;8.32;100.00
7918;BME280;4004;42.624;23.386;2022-12-07T09:43:52;94012.84;;;8.36;100.00
7918;BME280;4004;42.624;23.386;2022-12-07T09:46:22;94003.44;;;8.42;100.00
7918;BME280;4004;42.624;23.386;2022-12-07T09:48:49;93999.53;;;8.40;100.00
7918;BME280;4004;42.624;23.386;2022-12-07T09:51:18;93997.56;;;8.37;100.00
7918;BME280;4004;42.624;23.386;2022-12-07T09:53:46;93999.22;;;8.41;100.00
7918;BME280;4004;42.624;23.386;2022-12-07T09:56:15;94001.31;;;8.48;100.00
7918;BME280;4004;42.624;23.386;2022-12-07T09:58:43;93994.03;;;8.48;100.00
7918;BME280;4004;42.624;23.386;2022-12-07T10:01:14;93993.00;;;8.53;100.00
7918;BME280;4004;42.624;23.386;2022-12-07T10:03:45;93994.22;;;8.56;100.00
7918;BME280;4004;42.624;23.386;2022-12-07T10:06:14;93986.63;;;8.58;100.00
7918;BME280;4004;42.624;23.386;2022-12-07T10:08:41;93989.84;;;8.63;100.00
7918;BME280;4004;42.624;23.386;2022-12-07T10:11:09;93981.63;;;8.72;100.00
7918;BME280;4004;42.624;23.386;2022-12-07T10:13:38;93984.13;;;8.81;100.00
7918;BME280;4004;42.624;23.386;2022-12-07T10:16:06;93982.31;;;8.85;100.00
7918;BME280;4004;42.624;23.386;2022-12-07T10:18:35;93980.47;;;8.89;100.00
7918;BME280;4004;42.624;23.386;2022-12-07T10:21:12;93971.16;;;8.83;100.00
7918;BME280;4004;42.624;23.386;2022-12-07T10:23:41;93964.06;;;8.75;100.00
7918;BME280;4004;42.624;23.386;2022-12-07T10:26:26;93958.88;;;8.82;100.00
7918;BME280;4004;42.624;23.386;2022-12-07T10:28:54;93971.31;;;8.90;100.00
7918;BME280;4004;42.624;23.386;2022-12-07T10:31:22;93970.78;;;9.00;100.00
7918;BME280;4004;42.624;23.386;2022-12-07T10:33:53;93950.38;;;8.96;100.00
7918;BME280;4004;42.624;23.386;2022-12-07T10:36:23;93951.28;;;9.19;100.00
7918;BME280;4004;42.624;23.386;2022-12-07T10:38:52;93952.53;;;9.41;100.00
7918;BME280;4004;42.624;23.386;2022-12-07T10:41:19;93946.31;;;9.57;100.00
7918;BME280;4004;42.624;23.386;2022-12-07T10:43:48;93945.59;;;9.60;99.08
7918;BME280;4004;42.624;23.386;2022-12-07T10:46:53;93941.59;;;9.69;98.79
7918;BME280;4004;42.624;23.386;2022-12-07T10:49:46;93942.44;;;9.73;97.85
7918;BME280;4004;42.624;23.386;2022-12-07T10:52:28;93935.16;;;9.74;97.88
7918;BME280;4004;42.624;23.386;2022-12-07T10:55:08;93932.50;;;9.74;96.54
7918;BME280;4004;42.624;23.386;2022-12-07T10:57:47;93929.94;;;9.81;96.21
7918;BME280;4004;42.624;23.386;2022-12-07T11:00:18;93925.03;;;9.87;96.44
7918;BME280;4004;42.624;23.386;2022-12-07T11:05:50;93899.03;;;9.91;95.63
7918;BME280;4004;42.624;23.386;2022-12-07T11:08:29;93910.84;;;9.86;96.09
7918;BME280;4004;42.624;23.386;2022-12-07T11:11:04;93909.72;;;9.87;96.36
7918;BME280;4004;42.624;23.386;2022-12-07T11:13:40;93907.06;;;9.68;96.26
7918;BME280;4004;42.624;23.386;2022-12-07T11:16:21;93918.06;;;9.43;97.04
7918;BME280;4004;42.624;23.386;2022-12-07T11:19:03;93915.59;;;9.34;98.24
7918;BME280;4004;42.624;23.386;2022-12-07T11:21:42;93908.22;;;9.31;98.59
7918;BME280;4004;42.624;23.386;2022-12-07T11:24:15;93903.91;;;9.27;99.15
7918;BME280;4004;42.624;23.386;2022-12-07T11:26:56;93907.25;;;9.40;98.51
7918;BME280;4004;42.624;23.386;2022-12-07T11:29:46;93904.91;;;9.38;98.43
7918;BME280;4004;42.624;23.386;2022-12-07T11:32:18;93892.72;;;9.41;98.52
7918;BME280;4004;42.624;23.386;2022-12-07T11:34:56;93883.03;;;9.17;99.74
7918;BME280;4004;42.624;23.386;2022-12-07T11:37:31;93879.94;;;9.15;99.86
7918;BME280;4004;42.624;23.386;2022-12-07T11:40:00;93885.78;;;9.20;99.75
7918;BME280;4004;42.624;23.386;2022-12-07T11:42:36;93882.03;;;9.25;100.00
7918;BME280;4004;42.624;23.386;2022-12-07T11:45:14;93876.84;;;9.32;99.84
7918;BME280;4004;42.624;23.386;2022-12-07T11:47:47;93865.25;;;9.28;98.87
7918;BME280;4004;42.624;23.386;2022-12-07T11:50:26;93861.84;;;9.31;98.85
7918;BME280;4004;42.624;23.386;2022-12-07T11:52:58;93856.50;;;9.31;99.16
7918;BME280;4004;42.624;23.386;2022-12-07T11:55:30;93861.00;;;9.27;98.68
7918;BME280;4004;42.624;23.386;2022-12-07T11:58:15;93862.06;;;9.22;99.43
7918;BME280;4004;42.624;23.386;2022-12-07T12:00:48;93847.53;;;9.23;99.81
7918;BME280;4004;42.624;23.386;2022-12-07T12:03:25;93849.94;;;9.28;99.87
7918;BME280;4004;42.624;23.386;2022-12-07T12:05:55;93848.88;;;9.33;100.00
7918;BME280;4004;42.624;23.386;2022-12-07T12:08:27;93848.56;;;9.38;100.00
7918;BME280;4004;42.624;23.386;2022-12-07T12:11:00;93845.84;;;9.54;97.79
7918;BME280;4004;42.624;23.386;2022-12-07T12:16:46;93841.03;;;9.44;98.39
7918;BME280;4004;42.624;23.386;2022-12-07T12:19:24;93844.69;;;9.36;98.69
7918;BME280;4004;42.624;23.386;2022-12-07T12:21:56;93833.91;;;9.32;99.01
7918;BME280;4004;42.624;23.386;2022-12-07T12:24:27;93825.69;;;9.25;99.57
7918;BME280;4004;42.624;23.386;2022-12-07T12:27:01;93821.91;;;9.26;99.69
7918;BME280;4004;42.624;23.386;2022-12-07T12:29:33;93813.84;;;9.06;100.00
7918;BME280;4004;42.624;23.386;2022-12-07T12:32:07;93820.91;;;9.15;100.00
7918;BME280;4004;42.624;23.386;2022-12-07T12:34:40;93812.78;;;9.11;100.00
7918;BME280;4004;42.624;23.386;2022-12-07T12:37:43;93808.44;;;9.03;100.00
7918;BME280;4004;42.624;23.386;2022-12-07T12:40:43;93805.72;;;8.83;100.00
7918;BME280;4004;42.624;23.386;2022-12-07T12:43:45;93807.34;;;8.88;100.00
7918;BME280;4004;42.624;23.386;2022-12-07T12:46:51;93813.72;;;8.99;100.00
7918;BME280;4004;42.624;23.386;2022-12-07T12:49:42;93806.88;;;9.02;100.00
7918;BME280;4004;42.624;23.386;2022-12-07T12:55:18;93811.59;;;9.08;99.71
7918;BME280;4004;42.624;23.386;2022-12-07T13:03:54;93805.13;;;9.09;100.00
7918;BME280;4004;42.624;23.386;2022-12-07T13:06:34;93807.22;;;9.20;100.00
7918;BME280;4004;42.624;23.386;2022-12-07T13:09:03;93802.84;;;9.31;100.00
7918;BME280;4004;42.624;23.386;2022-12-07T13:11:33;93800.78;;;9.44;100.00
7918;BME280;4004;42.624;23.386;2022-12-07T13:14:40;93799.38;;;9.50;98.93
7918;BME280;4004;42.624;23.386;2022-12-07T13:17:09;93807.13;;;9.55;98.50
7918;BME280;4004;42.624;23.386;2022-12-07T13:19:56;93807.00;;;9.48;98.37
7918;BME280;4004;42.624;23.386;2022-12-07T13:22:40;93820.75;;;9.46;98.13
7918;BME280;4004;42.624;23.386;2022-12-07T13:25:11;93814.28;;;9.47;98.48
7918;BME280;4004;42.624;23.386;2022-12-07T13:27:40;93806.50;;;9.42;98.32
7918;BME280;4004;42.624;23.386;2022-12-07T13:30:14;93810.53;;;9.32;100.00
7918;BME280;4004;42.624;23.386;2022-12-07T13:32:42;93810.97;;;9.15;100.00
7918;BME280;4004;42.624;23.386;2022-12-07T13:35:30;93801.72;;;9.12;100.00
7918;BME280;4004;42.624;23.386;2022-12-07T13:37:57;93810.63;;;9.17;100.00
7918;BME280;4004;42.624;23.386;2022-12-07T13:40:24;93807.16;;;9.16;100.00
7918;BME280;4004;42.624;23.386;2022-12-07T13:42:57;93805.25;;;9.17;100.00
7918;BME280;4004;42.624;23.386;2022-12-07T13:45:27;93799.19;;;9.20;100.00
7918;BME280;4004;42.624;23.386;2022-12-07T13:48:10;93793.47;;;9.21;100.00